sensor_id;sensor_type;location;lat;lon;timestamp;temperature;humidity
53286;DHT22;39171;45.550;12.074;2023-03-31T00:00:52;18.30;65.40
53286;DHT22;39171;45.550;12.074;2023-03-31T00:06:53;18.30;65.50
53286;DHT22;39171;45.550;12.074;2023-03-31T00:12:55;18.30;65.60
53286;DHT22;39171;45.550;12.074;2023-03-31T00:18:56;18.30;65.60
53286;DHT22;39171;45.550;12.074;2023-03-31T00:24:57;18.20;65.90
53286;DHT22;39171;45.550;12.074;2023-03-31T00:30:59;18.20;65.90
53286;DHT22;39171;45.550;12.074;2023-03-31T00:37:01;18.20;66.10
53286;DHT22;39171;45.550;12.074;2023-03-31T00:43:02;18.20;66.10
53286;DHT22;39171;45.550;12.074;2023-03-31T00:49:03;18.20;66.10
53286;DHT22;39171;45.550;12.074;2023-03-31T00:55:08;18.20;66.10
53286;DHT22;39171;45.550;12.074;2023-03-31T01:01:13;18.20;66.10
53286;DHT22;39171;45.550;12.074;2023-03-31T01:07:19;18.20;66.20
53286;DHT22;39171;45.550;12.074;2023-03-31T01:13:23;18.10;66.30
53286;DHT22;39171;45.550;12.074;2023-03-31T01:19:30;18.10;66.40
53286;DHT22;39171;45.550;12.074;2023-03-31T01:50:14;18.00;66.50
53286;DHT22;39171;45.550;12.074;2023-03-31T01:56:27;18.00;66.50
53286;DHT22;39171;45.550;12.074;2023-03-31T02:02:33;18.00;66.60
53286;DHT22;39171;45.550;12.074;2023-03-31T02:08:38;18.00;66.60
53286;DHT22;39171;45.550;12.074;2023-03-31T02:14:42;18.00;66.80
53286;DHT22;39171;45.550;12.074;2023-03-31T02:20:45;18.00;67.10
53286;DHT22;39171;45.550;12.074;2023-03-31T02:26:52;18.00;67.10
53286;DHT22;39171;45.550;12.074;2023-03-31T02:32:55;17.90;67.10
53286;DHT22;39171;45.550;12.074;2023-03-31T02:38:59;17.90;67.00
53286;DHT22;39171;45.550;12.074;2023-03-31T02:45:03;17.90;67.00
53286;DHT22;39171;45.550;12.074;2023-03-31T03:15:36;17.80;67.30
53286;DHT22;39171;45.550;12.074;2023-03-31T03:21:40;17.80;67.30
53286;DHT22;39171;45.550;12.074;2023-03-31T03:27:41;17.80;67.50
53286;DHT22;39171;45.550;12.074;2023-03-31T03:33:42;17.80;67.50
53286;DHT22;39171;45.550;12.074;2023-03-31T03:39:43;17.80;67.70
53286;DHT22;39171;45.550;12.074;2023-03-31T03:45:48;17.80;67.50
53286;DHT22;39171;45.550;12.074;2023-03-31T03:51:50;17.80;67.50
53286;DHT22;39171;45.550;12.074;2023-03-31T03:57:51;17.80;67.40
53286;DHT22;39171;45.550;12.074;2023-03-31T04:03:52;17.80;67.50
53286;DHT22;39171;45.550;12.074;2023-03-31T04:09:54;17.80;67.50
53286;DHT22;39171;45.550;12.074;2023-03-31T04:15:55;17.70;67.50
53286;DHT22;39171;45.550;12.074;2023-03-31T04:21:56;17.70;67.50
53286;DHT22;39171;45.550;12.074;2023-03-31T04:28:02;17.70;67.60
53286;DHT22;39171;45.550;12.074;2023-03-31T04:34:06;17.70;67.60
53286;DHT22;39171;45.550;12.074;2023-03-31T04:40:13;17.70;67.60
53286;DHT22;39171;45.550;12.074;2023-03-31T04:46:14;17.70;67.80
53286;DHT22;39171;45.550;12.074;2023-03-31T04:52:15;17.70;67.70
53286;DHT22;39171;45.550;12.074;2023-03-31T04:58:16;17.70;67.70
53286;DHT22;39171;45.550;12.074;2023-03-31T05:04:17;17.70;67.70
53286;DHT22;39171;45.550;12.074;2023-03-31T05:10:19;17.70;67.80
53286;DHT22;39171;45.550;12.074;2023-03-31T05:16:20;17.70;67.80
53286;DHT22;39171;45.550;12.074;2023-03-31T05:22:21;17.70;67.90
53286;DHT22;39171;45.550;12.074;2023-03-31T05:28:23;17.60;67.90
53286;DHT22;39171;45.550;12.074;2023-03-31T05:34:24;17.60;67.90
53286;DHT22;39171;45.550;12.074;2023-03-31T05:40:25;17.60;68.10
53286;DHT22;39171;45.550;12.074;2023-03-31T05:46:27;17.60;68.10
53286;DHT22;39171;45.550;12.074;2023-03-31T05:52:28;17.50;68.10
53286;DHT22;39171;45.550;12.074;2023-03-31T05:58:30;17.50;68.20
53286;DHT22;39171;45.550;12.074;2023-03-31T06:04:31;17.50;68.40
53286;DHT22;39171;45.550;12.074;2023-03-31T06:10:32;17.50;68.30
53286;DHT22;39171;45.550;12.074;2023-03-31T06:16:34;17.50;68.30
53286;DHT22;39171;45.550;12.074;2023-03-31T06:22:35;17.50;68.30
53286;DHT22;39171;45.550;12.074;2023-03-31T06:28:36;17.50;68.30
53286;DHT22;39171;45.550;12.074;2023-03-31T06:34:40;17.50;68.40
53286;DHT22;39171;45.550;12.074;2023-03-31T06:40:41;17.50;68.30
53286;DHT22;39171;45.550;12.074;2023-03-31T06:46:43;17.50;68.10
53286;DHT22;39171;45.550;12.074;2023-03-31T06:52:44;17.50;68.30
53286;DHT22;39171;45.550;12.074;2023-03-31T06:58:45;17.50;68.40
53286;DHT22;39171;45.550;12.074;2023-03-31T07:04:46;17.70;68.10
53286;DHT22;39171;45.550;12.074;2023-03-31T07:10:48;17.90;67.40
53286;DHT22;39171;45.550;12.074;2023-03-31T07:16:50;18.20;67.00
53286;DHT22;39171;45.550;12.074;2023-03-31T07:22:51;18.50;66.70
53286;DHT22;39171;45.550;12.074;2023-03-31T07:28:52;18.80;66.30
53286;DHT22;39171;45.550;12.074;2023-03-31T07:34:56;19.00;66.10
53286;DHT22;39171;45.550;12.074;2023-03-31T07:40:57;19.20;65.80
53286;DHT22;39171;45.550;12.074;2023-03-31T07:46:59;19.30;65.50
53286;DHT22;39171;45.550;12.074;2023-03-31T07:53:04;19.50;65.10
53286;DHT22;39171;45.550;12.074;2023-03-31T07:59:05;19.60;64.80
53286;DHT22;39171;45.550;12.074;2023-03-31T08:05:06;19.70;64.60
53286;DHT22;39171;45.550;12.074;2023-03-31T08:11:08;19.70;64.40
53286;DHT22;39171;45.550;12.074;2023-03-31T08:17:09;19.70;64.30
53286;DHT22;39171;45.550;12.074;2023-03-31T08:23:11;19.70;64.20
53286;DHT22;39171;45.550;12.074;2023-03-31T08:29:12;19.70;64.20
53286;DHT22;39171;45.550;12.074;2023-03-31T08:35:13;19.70;64.00
53286;DHT22;39171;45.550;12.074;2023-03-31T08:47:36;19.60;64.00
53286;DHT22;39171;45.550;12.074;2023-03-31T08:54:00;19.60;64.00
53286;DHT22;39171;45.550;12.074;2023-03-31T09:00:03;19.60;64.00
53286;DHT22;39171;45.550;12.074;2023-03-31T09:06:07;19.50;64.10
53286;DHT22;39171;45.550;12.074;2023-03-31T09:12:13;19.60;64.20
53286;DHT22;39171;45.550;12.074;2023-03-31T09:24:29;19.50;64.00
53286;DHT22;39171;45.550;12.074;2023-03-31T09:30:33;19.50;64.10
53286;DHT22;39171;45.550;12.074;2023-03-31T09:36:35;19.50;64.10
53286;DHT22;39171;45.550;12.074;2023-03-31T09:42:36;19.50;64.10
53286;DHT22;39171;45.550;12.074;2023-03-31T09:48:38;19.50;64.30
53286;DHT22;39171;45.550;12.074;2023-03-31T10:00:41;19.50;64.20
53286;DHT22;39171;45.550;12.074;2023-03-31T10:06:43;19.40;63.90
53286;DHT22;39171;45.550;12.074;2023-03-31T10:12:48;19.40;64.00
53286;DHT22;39171;45.550;12.074;2023-03-31T10:18:50;19.40;64.20
53286;DHT22;39171;45.550;12.074;2023-03-31T10:24:51;19.40;64.20
53286;DHT22;39171;45.550;12.074;2023-03-31T10:30:53;19.40;64.20
53286;DHT22;39171;45.550;12.074;2023-03-31T10:36:55;19.40;64.10
53286;DHT22;39171;45.550;12.074;2023-03-31T10:42:58;19.40;64.00
53286;DHT22;39171;45.550;12.074;2023-03-31T10:49:04;19.40;63.90
53286;DHT22;39171;45.550;12.074;2023-03-31T10:55:22;19.30;64.00
53286;DHT22;39171;45.550;12.074;2023-03-31T11:01:28;19.30;64.30
53286;DHT22;39171;45.550;12.074;2023-03-31T11:44:19;19.30;64.30
53286;DHT22;39171;45.550;12.074;2023-03-31T11:50:24;19.30;63.90
53286;DHT22;39171;45.550;12.074;2023-03-31T11:56:29;19.30;63.90
53286;DHT22;39171;45.550;12.074;2023-03-31T12:02:39;19.30;63.80
53286;DHT22;39171;45.550;12.074;2023-03-31T12:09:00;19.30;64.10
53286;DHT22;39171;45.550;12.074;2023-03-31T12:15:23;19.30;63.80
53286;DHT22;39171;45.550;12.074;2023-03-31T12:21:26;19.30;63.60
53286;DHT22;39171;45.550;12.074;2023-03-31T12:27:34;19.30;63.60
53286;DHT22;39171;45.550;12.074;2023-03-31T12:33:38;19.30;63.40
53286;DHT22;39171;45.550;12.074;2023-03-31T12:46:03;19.40;63.20
53286;DHT22;39171;45.550;12.074;2023-03-31T12:52:17;19.60;62.80
53286;DHT22;39171;45.550;12.074;2023-03-31T13:04:24;19.90;62.40
53286;DHT22;39171;45.550;12.074;2023-03-31T13:10:27;20.00;62.30
53286;DHT22;39171;45.550;12.074;2023-03-31T13:16:29;20.10;62.00
53286;DHT22;39171;45.550;12.074;2023-03-31T13:22:35;20.30;62.00
53286;DHT22;39171;45.550;12.074;2023-03-31T13:34:38;20.60;61.50
53286;DHT22;39171;45.550;12.074;2023-03-31T13:40:50;20.70;61.30
53286;DHT22;39171;45.550;12.074;2023-03-31T13:53:13;20.70;61.30
53286;DHT22;39171;45.550;12.074;2023-03-31T14:11:26;20.60;61.20
53286;DHT22;39171;45.550;12.074;2023-03-31T14:17:37;20.50;61.20
53286;DHT22;39171;45.550;12.074;2023-03-31T14:23:42;20.50;61.40
53286;DHT22;39171;45.550;12.074;2023-03-31T14:42:12;20.40;61.40
53286;DHT22;39171;45.550;12.074;2023-03-31T14:48:15;20.40;61.50
53286;DHT22;39171;45.550;12.074;2023-03-31T14:54:16;20.30;61.60
53286;DHT22;39171;45.550;12.074;2023-03-31T15:00:25;20.30;61.70
53286;DHT22;39171;45.550;12.074;2023-03-31T15:06:27;20.30;61.40
53286;DHT22;39171;45.550;12.074;2023-03-31T15:12:32;20.30;61.60
53286;DHT22;39171;45.550;12.074;2023-03-31T15:18:34;20.20;61.90
53286;DHT22;39171;45.550;12.074;2023-03-31T15:24:39;20.20;61.60
53286;DHT22;39171;45.550;12.074;2023-03-31T15:30:41;20.20;61.70
53286;DHT22;39171;45.550;12.074;2023-03-31T15:36:42;20.20;61.80
53286;DHT22;39171;45.550;12.074;2023-03-31T15:42:44;20.20;61.60
53286;DHT22;39171;45.550;12.074;2023-03-31T15:48:52;20.10;62.00
53286;DHT22;39171;45.550;12.074;2023-03-31T15:54:54;20.10;62.30
53286;DHT22;39171;45.550;12.074;2023-03-31T16:01:00;20.10;62.30
53286;DHT22;39171;45.550;12.074;2023-03-31T16:07:05;20.10;62.50
53286;DHT22;39171;45.550;12.074;2023-03-31T16:13:08;20.00;62.50
53286;DHT22;39171;45.550;12.074;2023-03-31T16:19:11;20.00;62.60
53286;DHT22;39171;45.550;12.074;2023-03-31T16:25:15;20.00;62.60
53286;DHT22;39171;45.550;12.074;2023-03-31T16:31:26;19.90;62.60
53286;DHT22;39171;45.550;12.074;2023-03-31T16:37:28;19.90;62.90
53286;DHT22;39171;45.550;12.074;2023-03-31T16:43:29;19.80;62.90
53286;DHT22;39171;45.550;12.074;2023-03-31T16:49:31;19.80;63.10
53286;DHT22;39171;45.550;12.074;2023-03-31T16:55:32;19.80;63.20
53286;DHT22;39171;45.550;12.074;2023-03-31T17:01:33;19.70;63.30
53286;DHT22;39171;45.550;12.074;2023-03-31T17:07:34;19.70;63.20
53286;DHT22;39171;45.550;12.074;2023-03-31T17:13:36;19.70;63.30
53286;DHT22;39171;45.550;12.074;2023-03-31T17:19:37;19.70;63.40
53286;DHT22;39171;45.550;12.074;2023-03-31T17:25:45;19.70;63.60
53286;DHT22;39171;45.550;12.074;2023-03-31T17:31:46;19.70;63.70
53286;DHT22;39171;45.550;12.074;2023-03-31T17:37:47;19.60;63.80
53286;DHT22;39171;45.550;12.074;2023-03-31T17:43:51;19.60;63.80
53286;DHT22;39171;45.550;12.074;2023-03-31T17:49:52;19.60;64.00
53286;DHT22;39171;45.550;12.074;2023-03-31T17:55:53;19.50;64.20
53286;DHT22;39171;45.550;12.074;2023-03-31T18:01:54;19.50;64.30
53286;DHT22;39171;45.550;12.074;2023-03-31T18:07:56;19.50;64.30
53286;DHT22;39171;45.550;12.074;2023-03-31T18:13:58;19.50;64.50
53286;DHT22;39171;45.550;12.074;2023-03-31T18:20:03;19.50;64.60
53286;DHT22;39171;45.550;12.074;2023-03-31T18:26:06;19.40;64.70
53286;DHT22;39171;45.550;12.074;2023-03-31T18:32:07;19.40;64.70
53286;DHT22;39171;45.550;12.074;2023-03-31T18:38:09;19.40;64.80
53286;DHT22;39171;45.550;12.074;2023-03-31T18:44:11;19.30;64.90
53286;DHT22;39171;45.550;12.074;2023-03-31T18:50:15;19.30;65.10
53286;DHT22;39171;45.550;12.074;2023-03-31T18:56:17;19.30;65.10
53286;DHT22;39171;45.550;12.074;2023-03-31T19:02:18;19.30;65.30
53286;DHT22;39171;45.550;12.074;2023-03-31T19:08:19;19.20;65.40
53286;DHT22;39171;45.550;12.074;2023-03-31T19:14:21;19.20;65.40
53286;DHT22;39171;45.550;12.074;2023-03-31T19:20:23;19.20;65.50
53286;DHT22;39171;45.550;12.074;2023-03-31T19:26:29;19.20;65.50
53286;DHT22;39171;45.550;12.074;2023-03-31T19:32:30;19.20;65.70
53286;DHT22;39171;45.550;12.074;2023-03-31T19:38:31;19.20;65.70
53286;DHT22;39171;45.550;12.074;2023-03-31T19:44:33;19.10;66.00
53286;DHT22;39171;45.550;12.074;2023-03-31T19:50:34;19.10;66.00
53286;DHT22;39171;45.550;12.074;2023-03-31T19:56:36;19.10;66.00
53286;DHT22;39171;45.550;12.074;2023-03-31T20:02:38;19.00;66.20
53286;DHT22;39171;45.550;12.074;2023-03-31T20:08:39;19.00;66.10
53286;DHT22;39171;45.550;12.074;2023-03-31T20:14:42;19.00;66.10
53286;DHT22;39171;45.550;12.074;2023-03-31T20:20:43;19.00;66.20
53286;DHT22;39171;45.550;12.074;2023-03-31T20:26:45;19.00;66.40
53286;DHT22;39171;45.550;12.074;2023-03-31T20:32:47;19.00;66.30
53286;DHT22;39171;45.550;12.074;2023-03-31T20:38:49;19.00;66.30
53286;DHT22;39171;45.550;12.074;2023-03-31T20:44:53;18.90;65.80
53286;DHT22;39171;45.550;12.074;2023-03-31T20:50:54;18.90;66.30
53286;DHT22;39171;45.550;12.074;2023-03-31T20:56:56;18.90;66.50
53286;DHT22;39171;45.550;12.074;2023-03-31T21:02:57;18.80;66.60
53286;DHT22;39171;45.550;12.074;2023-03-31T21:08:58;18.80;66.80
53286;DHT22;39171;45.550;12.074;2023-03-31T21:14:59;18.80;66.80
53286;DHT22;39171;45.550;12.074;2023-03-31T21:21:10;18.80;66.90
53286;DHT22;39171;45.550;12.074;2023-03-31T21:27:12;18.80;66.90
53286;DHT22;39171;45.550;12.074;2023-03-31T21:33:13;18.80;66.90
53286;DHT22;39171;45.550;12.074;2023-03-31T21:39:14;18.70;67.00
53286;DHT22;39171;45.550;12.074;2023-03-31T21:45:16;18.70;67.10
53286;DHT22;39171;45.550;12.074;2023-03-31T21:51:19;18.70;67.30
53286;DHT22;39171;45.550;12.074;2023-03-31T21:57:22;18.70;67.50
53286;DHT22;39171;45.550;12.074;2023-03-31T22:03:23;18.60;67.40
53286;DHT22;39171;45.550;12.074;2023-03-31T22:09:28;18.70;67.50
53286;DHT22;39171;45.550;12.074;2023-03-31T22:15:29;18.70;67.50
53286;DHT22;39171;45.550;12.074;2023-03-31T22:21:31;18.60;67.50
53286;DHT22;39171;45.550;12.074;2023-03-31T22:27:32;18.60;67.60
53286;DHT22;39171;45.550;12.074;2023-03-31T22:33:33;18.50;67.60
53286;DHT22;39171;45.550;12.074;2023-03-31T22:39:34;18.50;67.60
53286;DHT22;39171;45.550;12.074;2023-03-31T22:45:36;18.50;67.60
53286;DHT22;39171;45.550;12.074;2023-03-31T22:51:40;18.40;67.80
53286;DHT22;39171;45.550;12.074;2023-03-31T22:57:42;18.50;67.80
53286;DHT22;39171;45.550;12.074;2023-03-31T23:03:44;18.40;67.90
53286;DHT22;39171;45.550;12.074;2023-03-31T23:09:45;18.40;68.10
53286;DHT22;39171;45.550;12.074;2023-03-31T23:15:47;18.30;68.60
53286;DHT22;39171;45.550;12.074;2023-03-31T23:21:48;18.40;68.30
53286;DHT22;39171;45.550;12.074;2023-03-31T23:27:49;18.30;68.30
53286;DHT22;39171;45.550;12.074;2023-03-31T23:33:50;18.30;68.20
53286;DHT22;39171;45.550;12.074;2023-03-31T23:39:52;18.30;68.10
53286;DHT22;39171;45.550;12.074;2023-03-31T23:45:53;18.30;68.30
53286;DHT22;39171;45.550;12.074;2023-03-31T23:51:54;18.20;68.30
53286;DHT22;39171;45.550;12.074;2023-03-31T23:57:56;18.20;68.30
